sensor_id;sensor_type;location;lat;lon;timestamp;P1;durP1;ratioP1;P2;durP2;ratioP2
5904;SDS011;2978;42.012;24.880;2023-07-31T00:00:30;5.20;;;2.90;;
5904;SDS011;2978;42.012;24.880;2023-07-31T00:02:55;7.70;;;2.47;;
5904;SDS011;2978;42.012;24.880;2023-07-31T00:05:21;9.73;;;2.67;;
5904;SDS011;2978;42.012;24.880;2023-07-31T00:07:46;5.17;;;2.70;;
5904;SDS011;2978;42.012;24.880;2023-07-31T00:10:12;4.03;;;2.47;;
5904;SDS011;2978;42.012;24.880;2023-07-31T00:12:38;4.73;;;2.07;;
5904;SDS011;2978;42.012;24.880;2023-07-31T00:15:05;8.10;;;2.30;;
5904;SDS011;2978;42.012;24.880;2023-07-31T00:17:31;5.10;;;2.50;;
5904;SDS011;2978;42.012;24.880;2023-07-31T00:19:57;3.90;;;2.00;;
5904;SDS011;2978;42.012;24.880;2023-07-31T00:22:22;7.80;;;2.60;;
5904;SDS011;2978;42.012;24.880;2023-07-31T00:24:47;5.20;;;2.43;;
5904;SDS011;2978;42.012;24.880;2023-07-31T00:27:13;5.70;;;2.47;;
5904;SDS011;2978;42.012;24.880;2023-07-31T00:29:38;8.67;;;3.07;;
5904;SDS011;2978;42.012;24.880;2023-07-31T00:32:04;12.07;;;2.73;;
5904;SDS011;2978;42.012;24.880;2023-07-31T00:34:30;7.10;;;2.53;;
5904;SDS011;2978;42.012;24.880;2023-07-31T00:36:55;5.50;;;2.80;;
5904;SDS011;2978;42.012;24.880;2023-07-31T00:39:21;7.00;;;2.73;;
5904;SDS011;2978;42.012;24.880;2023-07-31T00:41:46;6.63;;;2.73;;
5904;SDS011;2978;42.012;24.880;2023-07-31T00:44:11;3.60;;;2.53;;
5904;SDS011;2978;42.012;24.880;2023-07-31T00:46:37;8.53;;;2.70;;
5904;SDS011;2978;42.012;24.880;2023-07-31T00:49:02;3.87;;;2.83;;
5904;SDS011;2978;42.012;24.880;2023-07-31T00:51:29;4.80;;;2.27;;
5904;SDS011;2978;42.012;24.880;2023-07-31T00:53:55;5.50;;;2.70;;
5904;SDS011;2978;42.012;24.880;2023-07-31T00:56:21;4.40;;;2.80;;
5904;SDS011;2978;42.012;24.880;2023-07-31T00:58:47;11.27;;;2.97;;
5904;SDS011;2978;42.012;24.880;2023-07-31T01:01:12;3.43;;;2.53;;
5904;SDS011;2978;42.012;24.880;2023-07-31T01:03:37;4.77;;;2.80;;
5904;SDS011;2978;42.012;24.880;2023-07-31T01:08:46;7.60;;;2.73;;
5904;SDS011;2978;42.012;24.880;2023-07-31T01:11:20;8.33;;;2.60;;
5904;SDS011;2978;42.012;24.880;2023-07-31T01:13:50;15.40;;;3.03;;
5904;SDS011;2978;42.012;24.880;2023-07-31T01:16:16;6.70;;;2.77;;
5904;SDS011;2978;42.012;24.880;2023-07-31T01:18:42;6.50;;;2.90;;
5904;SDS011;2978;42.012;24.880;2023-07-31T01:21:30;5.67;;;3.33;;
5904;SDS011;2978;42.012;24.880;2023-07-31T01:24:20;7.40;;;3.13;;
5904;SDS011;2978;42.012;24.880;2023-07-31T01:27:12;5.67;;;2.63;;
5904;SDS011;2978;42.012;24.880;2023-07-31T01:29:45;6.50;;;2.80;;
5904;SDS011;2978;42.012;24.880;2023-07-31T01:32:14;4.30;;;2.70;;
5904;SDS011;2978;42.012;24.880;2023-07-31T01:34:42;6.77;;;2.77;;
5904;SDS011;2978;42.012;24.880;2023-07-31T01:37:09;4.30;;;2.33;;
5904;SDS011;2978;42.012;24.880;2023-07-31T01:39:34;6.33;;;2.90;;
5904;SDS011;2978;42.012;24.880;2023-07-31T01:42:00;9.00;;;3.00;;
5904;SDS011;2978;42.012;24.880;2023-07-31T01:44:25;9.37;;;3.30;;
5904;SDS011;2978;42.012;24.880;2023-07-31T01:46:50;8.60;;;2.70;;
5904;SDS011;2978;42.012;24.880;2023-07-31T01:49:16;9.40;;;3.10;;
5904;SDS011;2978;42.012;24.880;2023-07-31T01:51:41;5.40;;;2.50;;
5904;SDS011;2978;42.012;24.880;2023-07-31T01:54:07;6.90;;;2.80;;
5904;SDS011;2978;42.012;24.880;2023-07-31T01:56:32;6.37;;;2.50;;
5904;SDS011;2978;42.012;24.880;2023-07-31T01:58:58;8.73;;;3.10;;
5904;SDS011;2978;42.012;24.880;2023-07-31T02:01:23;6.20;;;2.37;;
5904;SDS011;2978;42.012;24.880;2023-07-31T02:03:48;6.43;;;3.13;;
5904;SDS011;2978;42.012;24.880;2023-07-31T02:06:14;5.07;;;2.80;;
5904;SDS011;2978;42.012;24.880;2023-07-31T02:08:39;4.10;;;2.80;;
5904;SDS011;2978;42.012;24.880;2023-07-31T02:11:05;8.23;;;2.90;;
5904;SDS011;2978;42.012;24.880;2023-07-31T02:13:30;7.53;;;2.50;;
5904;SDS011;2978;42.012;24.880;2023-07-31T02:15:55;4.90;;;2.90;;
5904;SDS011;2978;42.012;24.880;2023-07-31T02:18:21;5.93;;;2.90;;
5904;SDS011;2978;42.012;24.880;2023-07-31T02:20:50;6.37;;;2.80;;
5904;SDS011;2978;42.012;24.880;2023-07-31T02:23:16;9.43;;;3.10;;
5904;SDS011;2978;42.012;24.880;2023-07-31T02:25:43;5.13;;;3.30;;
5904;SDS011;2978;42.012;24.880;2023-07-31T02:28:08;9.53;;;2.93;;
5904;SDS011;2978;42.012;24.880;2023-07-31T02:30:34;11.07;;;3.03;;
5904;SDS011;2978;42.012;24.880;2023-07-31T02:32:59;7.60;;;3.10;;
5904;SDS011;2978;42.012;24.880;2023-07-31T02:35:24;9.60;;;3.27;;
5904;SDS011;2978;42.012;24.880;2023-07-31T02:37:50;4.20;;;3.07;;
5904;SDS011;2978;42.012;24.880;2023-07-31T02:40:15;4.40;;;2.70;;
5904;SDS011;2978;42.012;24.880;2023-07-31T02:42:40;8.40;;;2.90;;
5904;SDS011;2978;42.012;24.880;2023-07-31T02:45:26;4.67;;;2.83;;
5904;SDS011;2978;42.012;24.880;2023-07-31T02:47:51;7.10;;;3.03;;
5904;SDS011;2978;42.012;24.880;2023-07-31T02:50:17;5.10;;;3.03;;
5904;SDS011;2978;42.012;24.880;2023-07-31T02:52:45;5.07;;;2.60;;
5904;SDS011;2978;42.012;24.880;2023-07-31T02:55:10;13.10;;;2.87;;
5904;SDS011;2978;42.012;24.880;2023-07-31T02:57:36;4.80;;;2.70;;
5904;SDS011;2978;42.012;24.880;2023-07-31T03:00:01;4.37;;;2.80;;
5904;SDS011;2978;42.012;24.880;2023-07-31T03:02:30;6.27;;;2.37;;
5904;SDS011;2978;42.012;24.880;2023-07-31T03:04:56;13.00;;;2.90;;
5904;SDS011;2978;42.012;24.880;2023-07-31T03:07:21;7.30;;;3.40;;
5904;SDS011;2978;42.012;24.880;2023-07-31T03:09:46;7.40;;;2.83;;
5904;SDS011;2978;42.012;24.880;2023-07-31T03:12:12;4.67;;;3.13;;
5904;SDS011;2978;42.012;24.880;2023-07-31T03:14:37;5.07;;;2.97;;
5904;SDS011;2978;42.012;24.880;2023-07-31T03:17:03;4.60;;;3.00;;
5904;SDS011;2978;42.012;24.880;2023-07-31T03:19:30;10.37;;;6.67;;
5904;SDS011;2978;42.012;24.880;2023-07-31T03:21:56;9.47;;;3.30;;
5904;SDS011;2978;42.012;24.880;2023-07-31T03:24:22;5.83;;;3.13;;
5904;SDS011;2978;42.012;24.880;2023-07-31T03:26:47;8.43;;;3.70;;
5904;SDS011;2978;42.012;24.880;2023-07-31T03:29:13;19.10;;;3.50;;
5904;SDS011;2978;42.012;24.880;2023-07-31T03:31:38;5.10;;;3.10;;
5904;SDS011;2978;42.012;24.880;2023-07-31T03:34:03;7.13;;;2.97;;
5904;SDS011;2978;42.012;24.880;2023-07-31T03:36:29;4.10;;;2.70;;
5904;SDS011;2978;42.012;24.880;2023-07-31T03:38:54;16.23;;;3.63;;
5904;SDS011;2978;42.012;24.880;2023-07-31T03:41:20;17.40;;;3.20;;
5904;SDS011;2978;42.012;24.880;2023-07-31T03:43:49;7.77;;;2.50;;
5904;SDS011;2978;42.012;24.880;2023-07-31T03:46:18;5.27;;;3.00;;
5904;SDS011;2978;42.012;24.880;2023-07-31T03:48:44;9.50;;;3.00;;
5904;SDS011;2978;42.012;24.880;2023-07-31T03:51:09;9.47;;;3.40;;
5904;SDS011;2978;42.012;24.880;2023-07-31T03:53:34;9.70;;;3.40;;
5904;SDS011;2978;42.012;24.880;2023-07-31T03:56:00;5.73;;;3.07;;
5904;SDS011;2978;42.012;24.880;2023-07-31T03:58:25;5.10;;;3.30;;
5904;SDS011;2978;42.012;24.880;2023-07-31T04:00:51;8.63;;;3.57;;
5904;SDS011;2978;42.012;24.880;2023-07-31T04:03:16;8.30;;;4.57;;
5904;SDS011;2978;42.012;24.880;2023-07-31T04:05:41;11.53;;;4.60;;
5904;SDS011;2978;42.012;24.880;2023-07-31T04:08:07;14.97;;;4.67;;
5904;SDS011;2978;42.012;24.880;2023-07-31T04:10:32;28.20;;;5.00;;
5904;SDS011;2978;42.012;24.880;2023-07-31T04:13:01;9.73;;;4.30;;
5904;SDS011;2978;42.012;24.880;2023-07-31T04:15:27;7.90;;;4.60;;
5904;SDS011;2978;42.012;24.880;2023-07-31T04:17:52;6.80;;;5.03;;
5904;SDS011;2978;42.012;24.880;2023-07-31T04:20:18;7.43;;;4.37;;
5904;SDS011;2978;42.012;24.880;2023-07-31T04:22:43;12.73;;;5.43;;
5904;SDS011;2978;42.012;24.880;2023-07-31T04:25:09;10.73;;;5.53;;
5904;SDS011;2978;42.012;24.880;2023-07-31T04:27:34;10.50;;;5.07;;
5904;SDS011;2978;42.012;24.880;2023-07-31T04:29:59;14.97;;;5.80;;
5904;SDS011;2978;42.012;24.880;2023-07-31T04:32:25;12.93;;;8.87;;
5904;SDS011;2978;42.012;24.880;2023-07-31T04:34:50;14.50;;;8.40;;
5904;SDS011;2978;42.012;24.880;2023-07-31T04:37:16;13.50;;;5.70;;
5904;SDS011;2978;42.012;24.880;2023-07-31T04:39:41;19.10;;;5.77;;
5904;SDS011;2978;42.012;24.880;2023-07-31T04:42:07;13.83;;;5.57;;
5904;SDS011;2978;42.012;24.880;2023-07-31T04:44:32;11.30;;;5.03;;
5904;SDS011;2978;42.012;24.880;2023-07-31T04:46:57;17.83;;;7.30;;
5904;SDS011;2978;42.012;24.880;2023-07-31T04:49:23;13.73;;;7.03;;
5904;SDS011;2978;42.012;24.880;2023-07-31T04:51:48;14.23;;;6.60;;
5904;SDS011;2978;42.012;24.880;2023-07-31T04:54:14;9.40;;;5.50;;
5904;SDS011;2978;42.012;24.880;2023-07-31T04:56:42;10.13;;;5.23;;
5904;SDS011;2978;42.012;24.880;2023-07-31T04:59:08;6.83;;;4.20;;
5904;SDS011;2978;42.012;24.880;2023-07-31T05:01:33;24.27;;;7.80;;
5904;SDS011;2978;42.012;24.880;2023-07-31T05:03:58;13.27;;;6.13;;
5904;SDS011;2978;42.012;24.880;2023-07-31T05:06:24;9.93;;;4.67;;
5904;SDS011;2978;42.012;24.880;2023-07-31T05:08:49;6.00;;;3.83;;
5904;SDS011;2978;42.012;24.880;2023-07-31T05:11:15;6.30;;;4.10;;
5904;SDS011;2978;42.012;24.880;2023-07-31T05:13:40;11.43;;;5.73;;
5904;SDS011;2978;42.012;24.880;2023-07-31T05:16:05;9.00;;;5.27;;
5904;SDS011;2978;42.012;24.880;2023-07-31T05:18:31;8.60;;;4.47;;
5904;SDS011;2978;42.012;24.880;2023-07-31T05:20:56;12.57;;;6.20;;
5904;SDS011;2978;42.012;24.880;2023-07-31T05:23:21;9.93;;;4.97;;
5904;SDS011;2978;42.012;24.880;2023-07-31T05:25:47;12.43;;;5.43;;
5904;SDS011;2978;42.012;24.880;2023-07-31T05:28:12;10.03;;;4.13;;
5904;SDS011;2978;42.012;24.880;2023-07-31T05:30:38;6.37;;;4.17;;
5904;SDS011;2978;42.012;24.880;2023-07-31T05:33:03;8.30;;;4.03;;
5904;SDS011;2978;42.012;24.880;2023-07-31T05:35:29;11.27;;;4.03;;
5904;SDS011;2978;42.012;24.880;2023-07-31T05:37:54;7.90;;;4.27;;
5904;SDS011;2978;42.012;24.880;2023-07-31T05:40:20;6.57;;;3.90;;
5904;SDS011;2978;42.012;24.880;2023-07-31T05:42:45;9.30;;;3.97;;
5904;SDS011;2978;42.012;24.880;2023-07-31T05:45:10;10.87;;;3.67;;
5904;SDS011;2978;42.012;24.880;2023-07-31T05:47:36;9.00;;;4.50;;
5904;SDS011;2978;42.012;24.880;2023-07-31T05:50:01;5.30;;;3.63;;
5904;SDS011;2978;42.012;24.880;2023-07-31T05:52:27;14.37;;;4.77;;
5904;SDS011;2978;42.012;24.880;2023-07-31T05:54:54;11.57;;;4.60;;
5904;SDS011;2978;42.012;24.880;2023-07-31T05:57:19;8.67;;;3.17;;
5904;SDS011;2978;42.012;24.880;2023-07-31T05:59:45;9.63;;;4.80;;
5904;SDS011;2978;42.012;24.880;2023-07-31T06:02:10;8.37;;;4.53;;
5904;SDS011;2978;42.012;24.880;2023-07-31T06:04:36;12.40;;;4.90;;
5904;SDS011;2978;42.012;24.880;2023-07-31T06:07:01;7.57;;;4.40;;
5904;SDS011;2978;42.012;24.880;2023-07-31T06:09:27;6.80;;;3.70;;
5904;SDS011;2978;42.012;24.880;2023-07-31T06:11:53;8.03;;;4.70;;
5904;SDS011;2978;42.012;24.880;2023-07-31T06:14:18;12.07;;;4.33;;
5904;SDS011;2978;42.012;24.880;2023-07-31T06:16:44;7.93;;;4.10;;
5904;SDS011;2978;42.012;24.880;2023-07-31T06:19:09;5.13;;;4.30;;
5904;SDS011;2978;42.012;24.880;2023-07-31T06:21:35;6.83;;;4.03;;
5904;SDS011;2978;42.012;24.880;2023-07-31T06:24:02;7.57;;;3.90;;
5904;SDS011;2978;42.012;24.880;2023-07-31T06:26:28;11.00;;;4.23;;
5904;SDS011;2978;42.012;24.880;2023-07-31T06:28:55;10.40;;;4.50;;
5904;SDS011;2978;42.012;24.880;2023-07-31T06:31:21;12.23;;;4.77;;
5904;SDS011;2978;42.012;24.880;2023-07-31T06:33:48;12.43;;;4.60;;
5904;SDS011;2978;42.012;24.880;2023-07-31T06:36:17;12.63;;;5.50;;
5904;SDS011;2978;42.012;24.880;2023-07-31T06:38:43;16.47;;;6.80;;
5904;SDS011;2978;42.012;24.880;2023-07-31T06:41:08;11.50;;;5.50;;
5904;SDS011;2978;42.012;24.880;2023-07-31T06:43:35;17.30;;;6.90;;
5904;SDS011;2978;42.012;24.880;2023-07-31T06:46:04;10.47;;;6.20;;
5904;SDS011;2978;42.012;24.880;2023-07-31T06:48:34;13.63;;;6.47;;
5904;SDS011;2978;42.012;24.880;2023-07-31T06:51:01;11.87;;;6.87;;
5904;SDS011;2978;42.012;24.880;2023-07-31T06:53:27;13.90;;;7.40;;
5904;SDS011;2978;42.012;24.880;2023-07-31T06:55:53;20.67;;;14.10;;
5904;SDS011;2978;42.012;24.880;2023-07-31T06:58:39;14.80;;;7.53;;
5904;SDS011;2978;42.012;24.880;2023-07-31T07:01:04;12.00;;;7.20;;
5904;SDS011;2978;42.012;24.880;2023-07-31T07:03:30;8.30;;;6.50;;
5904;SDS011;2978;42.012;24.880;2023-07-31T07:05:55;10.13;;;6.73;;
5904;SDS011;2978;42.012;24.880;2023-07-31T07:08:21;9.90;;;7.07;;
5904;SDS011;2978;42.012;24.880;2023-07-31T07:10:47;9.27;;;6.47;;
5904;SDS011;2978;42.012;24.880;2023-07-31T07:13:13;11.90;;;6.47;;
5904;SDS011;2978;42.012;24.880;2023-07-31T07:15:38;11.60;;;7.47;;
5904;SDS011;2978;42.012;24.880;2023-07-31T07:18:04;12.93;;;7.03;;
5904;SDS011;2978;42.012;24.880;2023-07-31T07:20:29;10.03;;;6.80;;
5904;SDS011;2978;42.012;24.880;2023-07-31T07:22:55;8.40;;;7.40;;
5904;SDS011;2978;42.012;24.880;2023-07-31T07:25:20;12.83;;;8.30;;
5904;SDS011;2978;42.012;24.880;2023-07-31T07:27:46;11.73;;;8.40;;
5904;SDS011;2978;42.012;24.880;2023-07-31T07:30:11;15.73;;;9.20;;
5904;SDS011;2978;42.012;24.880;2023-07-31T07:32:37;16.33;;;8.13;;
5904;SDS011;2978;42.012;24.880;2023-07-31T07:35:02;11.63;;;7.67;;
